createdAt,value
2022-08-01T00:00:11.847Z,96683.50
2022-08-01T00:02:40.373Z,96674.13
2022-08-01T00:05:10.166Z,96680.31
2022-08-01T00:07:39.330Z,96672.56
2022-08-01T00:10:12.564Z,96680.88
2022-08-01T00:12:40.824Z,96680.59
2022-08-01T00:15:12.594Z,96679.78
2022-08-01T00:17:41.801Z,96682.47
2022-08-01T00:20:14.354Z,96687.28
2022-08-01T00:22:42.687Z,96686.19
2022-08-01T00:25:12.565Z,96677.06
2022-08-01T00:27:40.703Z,96682.66
2022-08-01T00:30:14.691Z,96683.69
2022-08-01T00:32:44.146Z,96684.19
2022-08-01T00:35:12.871Z,96686.09
2022-08-01T00:37:40.954Z,96692.84
2022-08-01T00:40:11.573Z,96691.47
2022-08-01T00:42:43.446Z,96687.13
2022-08-01T00:45:12.634Z,96685.50
2022-08-01T00:47:41.357Z,96682.56
2022-08-01T00:50:11.798Z,96688.16
2022-08-01T00:52:41.860Z,96684.16
2022-08-01T00:55:15.194Z,96680.34
2022-08-01T00:58:04.851Z,96686.25
2022-08-01T01:00:34.920Z,96690.31
2022-08-01T01:03:23.844Z,96689.53
2022-08-01T01:06:16.758Z,96698.38
2022-08-01T01:08:56.137Z,96698.66
2022-08-01T01:11:33.793Z,96689.28
2022-08-01T01:14:09.974Z,96692.84
2022-08-01T01:16:42.305Z,96690.19
2022-08-01T01:19:18.064Z,96700.09
2022-08-01T01:22:11.302Z,96702.53
2022-08-01T01:24:51.487Z,96696.44
2022-08-01T01:27:41.537Z,96699.13
2022-08-01T01:30:12.071Z,96693.50
2022-08-01T01:32:45.265Z,96701.34
2022-08-01T01:35:19.469Z,96704.00
2022-08-01T01:37:49.846Z,96702.72
2022-08-01T01:40:19.790Z,96710.00
2022-08-01T01:42:49.642Z,96700.38
2022-08-01T01:45:20.016Z,96704.41
2022-08-01T01:47:48.897Z,96705.00
2022-08-01T01:50:17.298Z,96700.75
2022-08-01T01:52:47.807Z,96709.09
2022-08-01T01:55:17.427Z,96708.84
2022-08-01T01:57:47.723Z,96711.81
2022-08-01T02:00:18.806Z,96705.94
2022-08-01T02:02:47.960Z,96706.47
2022-08-01T02:05:17.030Z,96705.97
2022-08-01T02:07:46.683Z,96710.00
2022-08-01T02:10:19.214Z,96710.00
2022-08-01T02:12:50.964Z,96712.94
2022-08-01T02:15:22.342Z,96715.16
2022-08-01T02:17:52.645Z,96714.91
2022-08-01T02:20:21.075Z,96716.81
2022-08-01T02:22:54.242Z,96713.09
2022-08-01T02:25:27.445Z,96717.66
2022-08-01T02:28:02.965Z,96712.63
2022-08-01T02:30:36.199Z,96713.16
2022-08-01T02:33:15.417Z,96714.50
2022-08-01T02:36:29.730Z,96717.47
2022-08-01T02:38:41.132Z,96718.81
2022-08-01T02:41:13.815Z,96722.34
2022-08-01T02:43:53.210Z,96718.31
2022-08-01T02:46:29.741Z,96720.47
2022-08-01T02:49:01.794Z,96724.50
2022-08-01T02:51:31.883Z,96728.53
2022-08-01T02:54:03.529Z,96733.91
2022-08-01T02:56:36.584Z,96720.25
2022-08-01T02:59:16.097Z,96722.41
2022-08-01T03:01:50.027Z,96724.84
2022-08-01T03:04:20.171Z,96729.94
2022-08-01T03:06:49.923Z,96725.44
2022-08-01T03:09:18.818Z,96726.75
2022-08-01T03:11:49.938Z,96725.13
2022-08-01T03:14:19.227Z,96724.59
2022-08-01T03:16:49.936Z,96723.53
2022-08-01T03:19:19.729Z,96727.28
2022-08-01T03:21:49.195Z,96726.22
2022-08-01T03:24:18.853Z,96726.72
2022-08-01T03:26:48.210Z,96727.81
2022-08-01T03:29:20.762Z,96726.22
2022-08-01T03:31:51.406Z,96725.16
2022-08-01T03:34:22.215Z,96730.22
2022-08-01T03:36:57.658Z,96741.25
2022-08-01T03:39:32.485Z,96729.72
2022-08-01T03:42:09.828Z,96737.75
2022-08-01T03:44:40.119Z,96742.03
2022-08-01T03:47:11.665Z,96739.13
2022-08-01T03:49:45.182Z,96736.16
2022-08-01T03:52:14.539Z,96741.28
2022-08-01T03:54:48.353Z,96740.72
2022-08-01T03:57:34.830Z,96740.72
2022-08-01T04:00:09.944Z,96743.41
2022-08-01T04:02:43.636Z,96736.44
2022-08-01T04:05:12.582Z,96735.13
2022-08-01T04:07:43.860Z,96736.19
2022-08-01T04:10:11.964Z,96737.53
2022-08-01T04:12:40.082Z,96744.75
2022-08-01T04:15:10.232Z,96748.22
2022-08-01T04:17:38.270Z,96750.91
2022-08-01T04:20:09.017Z,96742.31
2022-08-01T04:22:37.623Z,96750.63
2022-08-01T04:25:14.347Z,96750.91
2022-08-01T04:27:50.368Z,96745.53
2022-08-01T04:30:24.566Z,96745.84
2022-08-01T04:32:55.528Z,96748.78
2022-08-01T04:36:02.964Z,96745.84
2022-08-01T04:38:19.481Z,96750.91
2022-08-01T04:40:48.074Z,96745.84
2022-08-01T04:43:16.793Z,96756.78
2022-08-01T04:45:45.636Z,96751.16
2022-08-01T04:48:15.293Z,96751.72
2022-08-01T04:50:45.334Z,96745.81
2022-08-01T04:53:17.674Z,96740.72
2022-08-01T04:55:46.862Z,96746.59
2022-08-01T04:58:18.223Z,96747.94
2022-08-01T05:00:47.415Z,96753.56
2022-08-01T05:03:15.761Z,96749.03
2022-08-01T05:05:45.155Z,96746.31
2022-08-01T05:08:13.281Z,96749.28
2022-08-01T05:10:41.286Z,96748.50
2022-08-01T05:13:09.690Z,96749.56
2022-08-01T05:15:38.543Z,96753.56
2022-08-01T05:18:08.710Z,96751.97
2022-08-01T05:20:37.921Z,96750.09
2022-08-01T05:23:08.053Z,96752.25
2022-08-01T05:25:56.892Z,96753.03
2022-08-01T05:28:26.426Z,96749.28
2022-08-01T05:30:55.750Z,96754.63
2022-08-01T05:33:23.968Z,96754.34
2022-08-01T05:35:52.056Z,96752.72
2022-08-01T05:38:21.505Z,96751.66
2022-08-01T05:40:49.745Z,96752.44
2022-08-01T05:43:17.836Z,96755.13
2022-08-01T05:45:46.962Z,96748.44
2022-08-01T05:48:15.191Z,96757.25
2022-08-01T05:50:43.339Z,96755.38
2022-08-01T05:53:11.518Z,96755.34
2022-08-01T05:55:40.897Z,96755.59
2022-08-01T05:58:12.414Z,96755.06
2022-08-01T06:00:43.322Z,96758.22
2022-08-01T06:03:12.321Z,96750.94
2022-08-01T06:05:40.530Z,96762.16
2022-08-01T06:08:08.574Z,96755.19
2022-08-01T06:10:36.830Z,96751.66
2022-08-01T06:13:06.212Z,96753.28
2022-08-01T06:15:34.673Z,96750.31
2022-08-01T06:18:02.917Z,96754.28
2022-08-01T06:20:31.174Z,96744.63
2022-08-01T06:22:59.733Z,96749.13
2022-08-01T06:25:28.058Z,96749.59
2022-08-01T06:27:56.240Z,96749.56
2022-08-01T06:30:26.170Z,96747.38
2022-08-01T06:32:56.770Z,96748.16
2022-08-01T06:35:24.763Z,96742.97
2022-08-01T06:37:52.969Z,96749.63
2022-08-01T06:40:21.095Z,96736.16
2022-08-01T06:42:49.303Z,96749.50
2022-08-01T06:45:18.127Z,96751.31
2022-08-01T06:47:49.457Z,96756.88
2022-08-01T06:50:19.467Z,96757.09
2022-08-01T06:52:47.762Z,96756.50
2022-08-01T06:55:15.845Z,96753.31
2022-08-01T06:57:51.398Z,96759.91
2022-08-01T07:00:23.381Z,96768.38
2022-08-01T07:02:54.236Z,96751.78
2022-08-01T07:05:23.327Z,96759.84
2022-08-01T07:07:52.347Z,96757.38
2022-08-01T07:10:20.880Z,96753.47
2022-08-01T07:12:48.898Z,96755.59
2022-08-01T07:15:17.459Z,96755.53
2022-08-01T07:17:45.639Z,96754.38
2022-08-01T07:20:16.510Z,96750.25
2022-08-01T07:22:48.181Z,96755.56
2022-08-01T07:25:16.601Z,96758.81
2022-08-01T07:27:45.567Z,96751.94
2022-08-01T07:30:14.718Z,96754.19
2022-08-01T07:32:42.912Z,96751.28
2022-08-01T07:35:11.832Z,96750.63
2022-08-01T07:37:48.430Z,96755.13
2022-08-01T07:40:19.940Z,96750.50
2022-08-01T07:42:48.403Z,96745.09
2022-08-01T07:45:17.278Z,96739.34
2022-08-01T07:47:46.495Z,96734.59
2022-08-01T07:50:14.971Z,96744.34
2022-08-01T07:52:44.629Z,96734.16
2022-08-01T07:55:16.588Z,96739.97
2022-08-01T07:57:45.105Z,96740.41
2022-08-01T08:00:14.501Z,96742.94
2022-08-01T08:02:42.661Z,96747.28
2022-08-01T08:05:10.996Z,96742.84
2022-08-01T08:07:40.070Z,96744.53
2022-08-01T08:10:11.272Z,96744.00
2022-08-01T08:12:39.561Z,96745.31
2022-08-01T08:15:10.154Z,96737.59
2022-08-01T08:17:38.285Z,96739.81
2022-08-01T08:20:09.326Z,96739.41
2022-08-01T08:22:38.933Z,96737.63
2022-08-01T08:25:10.377Z,96732.66
2022-08-01T08:27:40.478Z,96734.78
2022-08-01T08:30:09.769Z,96730.53
2022-08-01T08:32:38.176Z,96724.63
2022-08-01T08:35:07.619Z,96728.50
2022-08-01T08:37:37.961Z,96724.16
2022-08-01T08:40:13.485Z,96721.97
2022-08-01T08:42:42.809Z,96722.38
2022-08-01T08:45:13.486Z,96718.88
2022-08-01T08:47:43.603Z,96725.66
2022-08-01T08:50:11.928Z,96724.56
2022-08-01T08:52:42.057Z,96724.84
2022-08-01T08:55:19.832Z,96725.56
2022-08-01T08:57:49.494Z,96727.94
2022-08-01T09:00:18.192Z,96730.47
2022-08-01T09:02:49.993Z,96729.66
2022-08-01T09:05:26.379Z,96731.25
2022-08-01T09:08:09.585Z,96732.34
2022-08-01T09:10:39.110Z,96737.34
2022-08-01T09:13:11.944Z,96734.16
2022-08-01T09:15:43.843Z,96731.03
2022-08-01T09:18:29.810Z,96728.81
2022-08-01T09:21:15.192Z,96728.22
2022-08-01T09:23:54.386Z,96722.72
2022-08-01T09:26:32.866Z,96736.31
2022-08-01T09:29:06.378Z,96733.31
2022-08-01T09:31:47.736Z,96740.72
2022-08-01T09:34:16.853Z,96740.44
2022-08-01T09:36:54.311Z,96737.72
2022-08-01T09:39:25.572Z,96741.31
2022-08-01T09:41:56.575Z,96744.31
2022-08-01T09:44:42.593Z,96735.22
2022-08-01T09:47:12.449Z,96746.81
2022-08-01T09:49:50.198Z,96738.72
2022-08-01T09:52:25.986Z,96728.13
2022-08-01T09:54:58.891Z,96735.50
2022-08-01T09:57:30.531Z,96734.59
2022-08-01T10:00:02.121Z,96737.84
2022-08-01T10:02:41.947Z,96724.44
2022-08-01T10:05:20.961Z,96734.00
2022-08-01T10:08:00.800Z,96732.41
2022-08-01T10:10:31.425Z,96726.84
2022-08-01T10:13:05.738Z,96726.41
2022-08-01T10:15:38.203Z,96725.78
2022-08-01T10:18:16.764Z,96724.16
2022-08-01T10:20:56.789Z,96722.31
2022-08-01T10:23:40.042Z,96717.72
2022-08-01T10:26:12.334Z,96710.13
2022-08-01T10:28:42.741Z,96724.22
2022-08-01T10:31:12.759Z,96711.19
2022-08-01T10:33:52.197Z,96706.59
2022-08-01T10:36:25.303Z,96710.28
2022-08-01T10:38:55.674Z,96709.00
2022-08-01T10:41:25.535Z,96709.97
2022-08-01T10:43:57.777Z,96707.13
2022-08-01T10:46:26.840Z,96706.00
2022-08-01T10:49:02.865Z,96705.47
2022-08-01T10:51:52.758Z,96699.19
2022-08-01T10:54:19.365Z,96700.94
2022-08-01T10:56:50.903Z,96698.50
2022-08-01T10:59:49.900Z,96697.69
2022-08-01T11:02:21.307Z,96705.47
2022-08-01T11:04:58.158Z,96707.81
2022-08-01T11:07:43.324Z,96699.41
2022-08-01T11:10:24.478Z,96698.06
2022-08-01T11:12:53.466Z,96688.09
2022-08-01T11:15:31.658Z,96686.56
2022-08-01T11:18:03.061Z,96687.53
2022-08-01T11:20:39.534Z,96692.19
2022-08-01T11:23:25.080Z,96679.34
2022-08-01T11:26:17.809Z,96672.81
2022-08-01T11:29:23.458Z,96675.94
2022-08-01T11:31:53.728Z,96672.97
2022-08-01T11:34:41.976Z,96667.56
2022-08-01T11:37:26.171Z,96663.25
2022-08-01T11:40:17.647Z,96669.31
2022-08-01T11:42:45.945Z,96668.84
2022-08-01T11:45:18.309Z,96657.88
2022-08-01T11:47:50.764Z,96657.13
2022-08-01T11:50:36.073Z,96662.06
2022-08-01T11:53:07.224Z,96661.31
2022-08-01T11:55:36.661Z,96663.03
2022-08-01T11:58:07.599Z,96652.53
2022-08-01T12:00:53.773Z,96650.66
2022-08-01T12:03:33.564Z,96655.56
2022-08-01T12:06:02.824Z,96651.25
2022-08-01T12:08:34.245Z,96649.69
2022-08-01T12:11:03.410Z,96648.53
2022-08-01T12:13:44.074Z,96645.06
2022-08-01T12:16:13.330Z,96634.56
2022-08-01T12:18:43.542Z,96650.16
2022-08-01T12:21:11.688Z,96644.56
2022-08-01T12:23:39.762Z,96636.16
2022-08-01T12:26:07.829Z,96630.38
2022-08-01T12:28:41.766Z,96628.16
2022-08-01T12:31:09.856Z,96629.91
2022-08-01T12:33:42.276Z,96633.91
2022-08-01T12:36:14.708Z,96634.69
2022-08-01T12:38:43.091Z,96635.19
2022-08-01T12:41:13.568Z,96632.66
2022-08-01T12:43:42.618Z,96628.66
2022-08-01T12:46:16.987Z,96628.03
2022-08-01T12:48:46.703Z,96635.38
2022-08-01T12:51:14.922Z,96641.25
2022-08-01T12:53:43.047Z,96618.91
2022-08-01T12:56:12.397Z,96631.03
2022-08-01T12:58:41.229Z,96616.53
2022-08-01T13:01:12.320Z,96624.00
2022-08-01T13:03:41.006Z,96627.47
2022-08-01T13:06:16.929Z,96628.59
2022-08-01T13:08:47.136Z,96631.00
2022-08-01T13:11:18.989Z,96621.78
2022-08-01T13:13:49.241Z,96624.50
2022-08-01T13:16:30.672Z,96627.06
2022-08-01T13:19:07.725Z,96621.34
2022-08-01T13:21:53.073Z,96622.59
2022-08-01T13:24:28.850Z,96617.81
2022-08-01T13:27:01.075Z,96614.31
2022-08-01T13:29:38.760Z,96628.34
2022-08-01T13:32:28.561Z,96621.34
2022-08-01T13:35:04.735Z,96623.72
2022-08-01T13:37:34.288Z,96625.78
2022-08-01T13:40:02.384Z,96624.03
2022-08-01T13:42:31.326Z,96621.16
2022-08-01T13:44:59.419Z,96618.31
2022-08-01T13:47:31.417Z,96617.00
2022-08-01T13:50:03.768Z,96620.38
2022-08-01T13:52:34.089Z,96616.69
2022-08-01T13:55:03.285Z,96622.59
2022-08-01T13:57:39.005Z,96620.72
2022-08-01T14:00:10.062Z,96624.81
2022-08-01T14:02:41.375Z,96627.22
2022-08-01T14:05:10.197Z,96624.06
2022-08-01T14:07:39.652Z,96622.13
2022-08-01T14:10:19.593Z,96615.47
2022-08-01T14:12:49.491Z,96613.19
2022-08-01T14:15:36.833Z,96610.81
2022-08-01T14:18:09.588Z,96605.88
2022-08-01T14:20:40.666Z,96605.88
2022-08-01T14:23:10.751Z,96605.56
2022-08-01T14:26:02.808Z,96606.66
2022-08-01T14:28:29.569Z,96607.78
2022-08-01T14:30:58.382Z,96615.41
2022-08-01T14:33:27.106Z,96614.16
2022-08-01T14:36:05.241Z,96615.09
2022-08-01T14:38:46.576Z,96615.09
2022-08-01T14:41:15.314Z,96606.03
2022-08-01T14:43:43.549Z,96612.09
2022-08-01T14:46:12.285Z,96614.59
2022-08-01T14:48:40.588Z,96615.88
2022-08-01T14:51:08.703Z,96618.56
2022-08-01T14:53:38.540Z,96610.44
2022-08-01T14:56:09.071Z,96606.66
2022-08-01T14:58:37.197Z,96611.41
2022-08-01T15:01:06.711Z,96613.50
2022-08-01T15:03:35.161Z,96608.88
2022-08-01T15:06:03.310Z,96608.22
2022-08-01T15:08:33.238Z,96612.56
2022-08-01T15:11:04.801Z,96599.81
2022-08-01T15:13:36.251Z,96603.16
2022-08-01T15:16:06.532Z,96606.50
2022-08-01T15:18:35.536Z,96605.84
2022-08-01T15:21:04.127Z,96605.84
2022-08-01T15:23:32.164Z,96611.72
2022-08-01T15:26:00.251Z,96613.97
2022-08-01T15:28:28.364Z,96616.84
2022-08-01T15:30:57.835Z,96618.28
2022-08-01T15:33:25.865Z,96620.47
2022-08-01T15:35:54.141Z,96619.72
2022-08-01T15:38:22.651Z,96623.19
2022-08-01T15:40:50.874Z,96621.91
2022-08-01T15:43:19.125Z,96622.38
2022-08-01T15:45:48.415Z,96619.66
2022-08-01T15:48:19.027Z,96622.22
2022-08-01T15:50:47.498Z,96616.31
2022-08-01T15:53:15.696Z,96611.69
2022-08-01T15:55:52.067Z,96607.38
2022-08-01T15:58:20.817Z,96614.06
2022-08-01T16:00:48.926Z,96618.19
2022-08-01T16:03:18.589Z,96617.88
2022-08-01T16:05:46.858Z,96620.09
2022-08-01T16:08:15.530Z,96625.19
2022-08-01T16:10:44.229Z,96621.06
2022-08-01T16:13:12.536Z,96615.66
2022-08-01T16:15:41.311Z,96615.66
2022-08-01T16:18:12.927Z,96609.75
2022-08-01T16:20:45.893Z,96610.06
2022-08-01T16:23:15.216Z,96614.19
2022-08-01T16:25:44.660Z,96615.47
2022-08-01T16:28:13.968Z,96613.03
2022-08-01T16:30:48.595Z,96613.03
2022-08-01T16:33:53.077Z,96611.75
2022-08-01T16:36:18.304Z,96614.28
2022-08-01T16:38:47.707Z,96613.19
2022-08-01T16:41:19.699Z,96614.94
2022-08-01T16:43:53.907Z,96621.41
2022-08-01T16:46:24.905Z,96620.63
2022-08-01T16:48:53.734Z,96616.31
2022-08-01T16:51:23.320Z,96622.84
2022-08-01T16:53:51.684Z,96626.03
2022-08-01T16:56:20.153Z,96629.66
2022-08-01T16:58:48.435Z,96624.41
2022-08-01T17:01:58.717Z,96628.03
2022-08-01T17:04:06.588Z,96624.88
2022-08-01T17:06:36.296Z,96630.75
2022-08-01T17:09:06.882Z,96635.97
2022-08-01T17:11:35.012Z,96629.50
2022-08-01T17:14:03.347Z,96634.81
2022-08-01T17:16:31.958Z,96633.22
2022-08-01T17:19:00.113Z,96649.06
2022-08-01T17:21:28.625Z,96652.28
2022-08-01T17:23:58.145Z,96648.00
2022-08-01T17:26:26.528Z,96643.19
2022-08-01T17:28:54.643Z,96654.63
2022-08-01T17:31:22.926Z,96652.72
2022-08-01T17:33:54.766Z,96649.34
2022-08-01T17:36:23.133Z,96657.06
2022-08-01T17:38:51.192Z,96660.38
2022-08-01T17:41:20.892Z,96656.38
2022-08-01T17:43:48.942Z,96653.97
2022-08-01T17:46:17.565Z,96653.00
2022-08-01T17:48:46.538Z,96658.53
2022-08-01T17:51:18.118Z,96667.25
2022-08-01T17:53:56.905Z,96657.06
2022-08-01T17:56:28.273Z,96667.69
2022-08-01T17:58:56.933Z,96669.09
2022-08-01T18:01:26.411Z,96677.63
2022-08-01T18:03:57.305Z,96678.69
2022-08-01T18:06:26.995Z,96675.53
2022-08-01T18:08:56.739Z,96675.66
2022-08-01T18:11:29.180Z,96678.94
2022-08-01T18:14:05.757Z,96673.16
2022-08-01T18:16:33.791Z,96675.38
2022-08-01T18:19:01.819Z,96676.78
2022-08-01T18:21:32.098Z,96669.88
2022-08-01T18:24:01.468Z,96670.19
2022-08-01T18:26:31.019Z,96674.59
2022-08-01T18:28:59.192Z,96678.69
2022-08-01T18:31:27.270Z,96671.72
2022-08-01T18:33:55.380Z,96667.22
2022-08-01T18:36:31.637Z,96668.31
2022-08-01T18:39:10.511Z,96667.81
2022-08-01T18:41:40.658Z,96680.59
2022-08-01T18:44:09.443Z,96681.53
2022-08-01T18:46:38.693Z,96696.09
2022-08-01T18:49:08.706Z,96698.31
2022-08-01T18:51:42.947Z,96705.41
2022-08-01T18:54:12.552Z,96709.97
2022-08-01T18:56:43.133Z,96699.00
2022-08-01T18:59:11.732Z,96699.13
2022-08-01T19:01:40.142Z,96709.69
2022-08-01T19:04:09.860Z,96715.59
2022-08-01T19:06:38.873Z,96716.19
2022-08-01T19:09:08.626Z,96714.38
2022-08-01T19:11:37.739Z,96715.00
2022-08-01T19:14:07.459Z,96718.78
2022-08-01T19:16:35.649Z,96733.66
2022-08-01T19:19:06.894Z,96719.38
2022-08-01T19:21:41.526Z,96714.25
2022-08-01T19:24:23.310Z,96717.03
2022-08-01T19:26:54.346Z,96728.13
2022-08-01T19:29:35.308Z,96735.72
2022-08-01T19:32:06.704Z,96736.91
2022-08-01T19:34:41.927Z,96736.69
2022-08-01T19:37:10.589Z,96733.28
2022-08-01T19:39:39.448Z,96740.88
2022-08-01T19:42:09.630Z,96740.59
2022-08-01T19:44:39.171Z,96742.56
2022-08-01T19:47:07.800Z,96755.03
2022-08-01T19:49:36.206Z,96759.69
2022-08-01T19:52:05.899Z,96765.66
2022-08-01T19:54:37.045Z,96768.16
2022-08-01T19:57:08.328Z,96770.03
2022-08-01T19:59:39.349Z,96779.31
2022-08-01T20:02:08.433Z,96780.69
2022-08-01T20:04:37.352Z,96780.78
2022-08-01T20:07:05.753Z,96786.72
2022-08-01T20:09:34.441Z,96794.38
2022-08-01T20:12:02.657Z,96799.53
2022-08-01T20:14:30.793Z,96792.34
2022-08-01T20:17:00.343Z,96798.69
2022-08-01T20:19:30.462Z,96803.81
2022-08-01T20:22:03.900Z,96795.00
2022-08-01T20:24:41.315Z,96796.63
2022-08-01T20:27:11.643Z,96796.69
2022-08-01T20:29:40.778Z,96794.53
2022-08-01T20:32:10.543Z,96807.97
2022-08-01T20:34:40.280Z,96790.72
2022-08-01T20:37:10.304Z,96798.59
2022-08-01T20:39:44.269Z,96799.97
2022-08-01T20:42:13.827Z,96802.50
2022-08-01T20:44:42.657Z,96799.09
2022-08-01T20:47:12.990Z,96797.25
2022-08-01T20:49:44.218Z,96793.81
2022-08-01T20:52:12.995Z,96797.63
2022-08-01T20:54:42.314Z,96799.25
2022-08-01T20:57:20.276Z,96802.47
2022-08-01T20:59:56.606Z,96802.72
2022-08-01T21:02:42.522Z,96803.72
2022-08-01T21:05:12.945Z,96794.28
2022-08-01T21:07:49.431Z,96803.00
2022-08-01T21:10:20.560Z,96809.50
2022-08-01T21:12:55.635Z,96817.84
2022-08-01T21:15:31.159Z,96807.38
2022-08-01T21:18:05.038Z,96812.19
2022-08-01T21:20:40.076Z,96808.91
2022-08-01T21:23:22.553Z,96820.56
2022-08-01T21:25:52.119Z,96819.25
2022-08-01T21:28:20.984Z,96817.19
2022-08-01T21:30:55.750Z,96822.59
2022-08-01T21:33:27.483Z,96838.22
2022-08-01T21:36:02.724Z,96820.50
2022-08-01T21:38:36.766Z,96824.03
2022-08-01T21:41:07.812Z,96828.19
2022-08-01T21:43:37.575Z,96828.19
2022-08-01T21:46:06.790Z,96833.56
2022-08-01T21:48:38.644Z,96834.34
2022-08-01T21:51:18.346Z,96833.59
2022-08-01T21:54:10.237Z,96833.66
2022-08-01T21:56:49.952Z,96831.19
2022-08-01T21:59:29.719Z,96830.47
2022-08-01T22:02:03.126Z,96832.34
2022-08-01T22:04:42.245Z,96834.22
2022-08-01T22:07:14.602Z,96833.97
2022-08-01T22:09:47.164Z,96841.50
2022-08-01T22:12:18.228Z,96835.09
2022-08-01T22:14:50.919Z,96839.19
2022-08-01T22:17:23.137Z,96836.78
2022-08-01T22:19:55.065Z,96833.13
2022-08-01T22:22:44.279Z,96832.88
2022-08-01T22:25:13.943Z,96837.78
2022-08-01T22:28:02.965Z,96836.16
2022-08-01T22:30:31.290Z,96831.53
2022-08-01T22:33:15.831Z,96836.47
2022-08-01T22:35:47.555Z,96837.31
2022-08-01T22:38:17.817Z,96833.81
2022-08-01T22:40:51.315Z,96827.66
2022-08-01T22:43:31.679Z,96829.38
2022-08-01T22:46:22.316Z,96828.88
2022-08-01T22:48:57.471Z,96830.00
2022-08-01T22:51:55.694Z,96827.34
2022-08-01T22:54:35.396Z,96829.81
2022-08-01T22:57:07.545Z,96836.75
2022-08-01T22:59:50.469Z,96849.94
2022-08-01T23:02:20.157Z,96853.44
2022-08-01T23:04:50.854Z,96849.69
2022-08-01T23:07:27.256Z,96859.34
2022-08-01T23:09:57.015Z,96847.53
2022-08-01T23:12:28.179Z,96843.00
2022-08-01T23:14:58.510Z,96852.66
2022-08-01T23:17:29.100Z,96841.97
2022-08-01T23:20:01.363Z,96839.81
2022-08-01T23:22:32.787Z,96833.94
2022-08-01T23:25:04.916Z,96827.00
2022-08-01T23:27:57.835Z,96828.91
2022-08-01T23:30:27.384Z,96831.03
2022-08-01T23:32:56.013Z,96833.44
2022-08-01T23:35:24.677Z,96840.72
2022-08-01T23:38:02.453Z,96837.75
2022-08-01T23:40:32.300Z,96840.44
2022-08-01T23:43:01.614Z,96842.31
2022-08-01T23:46:01.694Z,96827.06
2022-08-01T23:48:18.553Z,96823.06
2022-08-01T23:50:46.621Z,96816.34
2022-08-01T23:53:16.112Z,96816.06
2022-08-01T23:55:44.656Z,96817.72
2022-08-01T23:58:12.899Z,96822.31
